Time;durP1;ratioP1;P1;durP2;ratioP2;P2;SDS_P1;SDS_P2;PMS_P1;PMS_P2;Temp;Humidity;BMP_temperature;BMP_pressure;BME280_temperature;BME280_humidity;BME280_pressure;Samples;Min_cycle;Max_cycle;Signal;HPM_P1;HPM_P2
2022/11/21 00:02:06;;;;;;;1.20;0.57;;;;;5.60;100128.00;;;;10444695;28;20259;-77
2022/11/21 00:07:08;;;;;;;1.70;0.90;;;;;5.50;100134.00;;;;10405379;28;20560;-77
2022/11/21 00:12:10;;;;;;;2.33;1.37;;;;;5.60;100122.00;;;;10421324;28;20185;-77
2022/11/21 00:17:11;;;;;;;2.67;1.30;;;;;5.40;100112.00;;;;10426216;28;20194;-77
2022/11/21 00:22:13;;;;;;;5.67;2.20;;;;;5.30;100109.00;;;;10450320;28;20202;-76
2022/11/21 00:27:15;;;;;;;5.13;2.50;;;;;5.20;100107.00;;;;10415432;28;20201;-77
2022/11/21 00:32:17;;;;;;;6.90;2.80;;;;;5.30;100109.00;;;;10445526;28;20273;-77
2022/11/21 00:37:19;;;;;;;10.00;3.03;;;;;5.40;100102.00;;;;10454824;28;20186;-77
2022/11/21 00:42:21;;;;;;;9.37;2.70;;;;;5.60;100107.00;;;;10417633;28;20288;-77
2022/11/21 00:47:23;;;;;;;4.03;2.40;;;;;5.60;100108.00;;;;10440989;28;20197;-77
2022/11/21 00:52:24;;;;;;;8.13;3.30;;;;;5.60;100103.00;;;;10457186;28;20196;-77
2022/11/21 00:57:26;;;;;;;6.80;2.90;;;;;5.60;100107.00;;;;10424758;28;20288;-77
2022/11/21 01:02:28;;;;;;;9.50;3.57;;;;;5.60;100110.00;;;;10440640;28;20667;-77
2022/11/21 01:07:30;;;;;;;7.47;2.60;;;;;5.60;100114.00;;;;10437385;28;20222;-77
2022/11/21 01:12:32;;;;;;;9.27;2.93;;;;;5.70;100093.00;;;;10437539;28;20190;-77
2022/11/21 01:17:34;;;;;;;5.63;2.80;;;;;5.60;100094.00;;;;10400068;28;20608;-77
2022/11/21 01:22:36;;;;;;;7.47;3.20;;;;;5.50;100094.00;;;;10441346;28;20743;-77
2022/11/21 01:27:38;;;;;;;7.77;3.00;;;;;5.40;100088.00;;;;10423427;28;20580;-77
2022/11/21 01:32:40;;;;;;;8.23;2.70;;;;;5.30;100095.00;;;;10441388;28;20232;-76
2022/11/21 01:37:42;;;;;;;7.07;2.73;;;;;5.30;100099.00;;;;10462447;28;20243;-77
2022/11/21 01:42:53;;;;;;;6.37;2.27;;;;;5.30;100109.00;;;;10449162;28;20217;-77
2022/11/21 01:47:55;;;;;;;3.90;2.43;;;;;5.30;100092.00;;;;10465908;28;20193;-77
2022/11/21 01:52:57;;;;;;;6.17;2.27;;;;;5.30;100095.00;;;;10481920;28;20759;-77
2022/11/21 01:58:00;;;;;;;7.53;3.17;;;;;5.40;100096.00;;;;10464255;28;20193;-77
2022/11/21 02:03:09;;;;;;;6.23;2.40;;;;;5.50;100085.00;;;;10446436;28;20282;-77
2022/11/21 02:08:19;;;;;;;8.43;2.53;;;;;5.60;100087.00;;;;10453854;28;20213;-77
2022/11/21 02:13:21;;;;;;;5.93;2.70;;;;;5.60;100094.00;;;;10462805;28;20621;-77
2022/11/21 02:18:23;;;;;;;5.70;2.07;;;;;5.70;100097.00;;;;10446917;28;20197;-77
2022/11/21 02:23:36;;;;;;;6.10;2.40;;;;;5.80;100088.00;;;;10462796;28;20201;-77
2022/11/21 02:28:38;;;;;;;6.63;2.43;;;;;5.90;100094.00;;;;10429496;28;20210;-77
2022/11/21 02:33:40;;;;;;;5.80;2.37;;;;;5.90;100097.00;;;;10445924;28;20721;-77
2022/11/21 02:38:42;;;;;;;4.67;2.13;;;;;5.90;100096.00;;;;10445835;28;20583;-76
2022/11/21 02:43:50;;;;;;;2.60;2.30;;;;;5.90;100093.00;;;;10461483;28;20217;-77
2022/11/21 02:48:53;;;;;;;8.93;3.20;;;;;6.00;100094.00;;;;10444775;28;20640;-77
2022/11/21 02:53:55;;;;;;;6.37;2.70;;;;;6.00;100094.00;;;;10428919;28;20190;-77
2022/11/21 02:58:57;;;;;;;7.10;2.33;;;;;6.00;100089.00;;;;10445057;28;20205;-78
2022/11/21 03:03:59;;;;;;;3.67;2.23;;;;;5.90;100089.00;;;;10437075;28;20297;-77
2022/11/21 03:09:01;;;;;;;7.80;2.87;;;;;5.90;100077.00;;;;10442948;28;20229;-77
2022/11/21 03:14:03;;;;;;;6.57;2.30;;;;;5.90;100079.00;;;;10460351;28;20219;-77
2022/11/21 03:19:04;;;;;;;4.07;1.83;;;;;5.90;100076.00;;;;10443733;28;20193;-77
2022/11/21 03:24:07;;;;;;;10.17;2.87;;;;;5.90;100075.00;;;;10460073;28;20214;-77
2022/11/21 03:29:09;;;;;;;7.67;3.47;;;;;5.90;100080.00;;;;10443658;28;20213;-77
2022/11/21 03:34:11;;;;;;;6.60;2.07;;;;;5.80;100079.00;;;;10476036;28;20181;-77
2022/11/21 03:39:13;;;;;;;4.37;2.00;;;;;5.80;100068.00;;;;10443515;28;20556;-77
2022/11/21 03:44:15;;;;;;;3.37;1.93;;;;;5.80;100066.00;;;;10426758;28;20724;-77
2022/11/21 03:49:17;;;;;;;5.13;2.00;;;;;5.70;100056.00;;;;10426354;28;20194;-77
2022/11/21 03:54:19;;;;;;;5.00;2.07;;;;;5.70;100065.00;;;;10475364;28;20678;-77
2022/11/21 03:59:21;;;;;;;2.90;1.80;;;;;5.70;100052.00;;;;10458714;28;20190;-77
2022/11/21 04:04:23;;;;;;;3.87;2.33;;;;;5.60;100058.00;;;;10441902;28;20217;-77
2022/11/21 04:09:25;;;;;;;4.10;1.93;;;;;5.50;100061.00;;;;10442162;28;20743;-77
2022/11/21 04:14:27;;;;;;;9.10;2.47;;;;;5.40;100061.00;;;;10458221;28;20197;-77
2022/11/21 04:19:29;;;;;;;2.47;1.60;;;;;5.40;100052.00;;;;10401520;28;20190;-77
2022/11/21 04:24:31;;;;;;;7.50;2.40;;;;;5.40;100050.00;;;;10417124;28;20275;-77
2022/11/21 04:29:32;;;;;;;2.60;1.80;;;;;5.40;100044.00;;;;10474922;28;20189;-77
2022/11/21 04:34:34;;;;;;;8.57;1.87;;;;;5.40;100044.00;;;;10441354;28;20674;-77
2022/11/21 04:39:36;;;;;;;8.50;2.07;;;;;5.40;100039.00;;;;10458191;28;20280;-77
2022/11/21 04:44:38;;;;;;;6.00;2.13;;;;;5.40;100043.00;;;;10458001;28;20263;-77
2022/11/21 04:49:40;;;;;;;5.30;2.07;;;;;5.40;100037.00;;;;10441525;28;20624;-76
2022/11/21 04:54:42;;;;;;;4.67;1.77;;;;;5.20;100025.00;;;;10474041;28;20194;-76
2022/11/21 04:59:43;;;;;;;9.40;1.90;;;;;5.10;100025.00;;;;10477957;28;20182;-76
2022/11/21 05:04:46;;;;;;;5.63;2.13;;;;;5.10;100018.00;;;;10451611;28;20673;-76
2022/11/21 05:09:48;;;;;;;6.67;2.03;;;;;5.00;100015.00;;;;10423683;28;20217;-76
2022/11/21 05:14:50;;;;;;;4.50;2.07;;;;;5.00;100013.00;;;;10448215;28;20599;-76
2022/11/21 05:19:51;;;;;;;5.40;2.40;;;;;5.00;100010.00;;;;10457107;28;20649;-76
2022/11/21 05:24:53;;;;;;;7.53;2.17;;;;;5.10;99996.00;;;;10444522;28;20213;-76
2022/11/21 05:29:55;;;;;;;6.70;2.20;;;;;5.20;99988.00;;;;10448025;28;20590;-76
2022/11/21 05:34:57;;;;;;;4.60;1.93;;;;;5.20;99989.00;;;;10447933;28;20202;-76
2022/11/21 05:39:59;;;;;;;8.90;2.27;;;;;5.10;99991.00;;;;10464319;28;20221;-76
2022/11/21 05:45:01;;;;;;;7.37;2.13;;;;;5.10;99981.00;;;;10447332;28;20210;-76
2022/11/21 05:50:04;;;;;;;5.40;2.13;;;;;5.00;99989.00;;;;10446929;28;20190;-76
2022/11/21 05:55:06;;;;;;;7.40;2.13;;;;;4.90;99975.00;;;;10447311;28;20198;-76
2022/11/21 06:00:08;;;;;;;4.17;2.10;;;;;4.80;99986.00;;;;10462995;28;20189;-76
2022/11/21 06:05:10;;;;;;;6.67;2.50;;;;;4.80;99972.00;;;;10445894;28;20616;-76
2022/11/21 06:10:12;;;;;;;6.57;2.60;;;;;4.70;99958.00;;;;10436720;28;20198;-76
2022/11/21 06:15:13;;;;;;;15.33;2.70;;;;;4.60;99948.00;;;;10442582;28;20273;-76
2022/11/21 06:20:15;;;;;;;3.40;2.07;;;;;4.50;99959.00;;;;10429656;28;20197;-76
2022/11/21 06:25:17;;;;;;;5.93;1.80;;;;;4.40;99948.00;;;;10461993;28;20221;-76
2022/11/21 06:30:19;;;;;;;6.70;2.30;;;;;4.30;99943.00;;;;10461976;28;20184;-76
2022/11/21 06:35:23;;;;;;;8.10;2.37;;;;;4.30;99940.00;;;;10443362;28;20194;-76
2022/11/21 06:40:25;;;;;;;5.43;2.00;;;;;4.20;99925.00;;;;10436695;28;20190;-76
2022/11/21 06:45:27;;;;;;;7.40;2.40;;;;;4.10;99921.00;;;;10427653;28;20202;-76
2022/11/21 06:50:32;;;;;;;13.20;2.53;;;;;4.00;99902.00;;;;10460642;28;20190;-76
2022/11/21 06:55:34;;;;;;;4.87;2.07;;;;;3.90;99898.00;;;;10461079;28;20197;-76
2022/11/21 07:00:36;;;;;;;4.37;1.73;;;;;3.80;99903.00;;;;10461261;28;20697;-76
2022/11/21 07:05:38;;;;;;;6.70;1.73;;;;;3.70;99900.00;;;;10443823;28;20623;-76
2022/11/21 07:10:40;;;;;;;8.80;2.63;;;;;3.60;99890.00;;;;10460943;28;20186;-76
2022/11/21 07:16:04;;;;;;;5.23;1.50;;;;;3.60;99881.00;;;;10446753;28;20633;-76
2022/11/21 07:21:07;;;;;;;7.93;2.27;;;;;3.60;99893.00;;;;10446770;28;20674;-75
2022/11/21 07:26:09;;;;;;;8.23;2.57;;;;;3.60;99891.00;;;;10449841;28;20218;-76
2022/11/21 07:31:11;;;;;;;3.97;2.03;;;;;3.60;99888.00;;;;10444113;28;20284;-76
2022/11/21 07:36:15;;;;;;;7.90;2.20;;;;;3.70;99899.00;;;;10423403;28;20193;-75
2022/11/21 07:41:16;;;;;;;10.23;2.47;;;;;3.70;99893.00;;;;10416047;28;20224;-76
2022/11/21 07:46:18;;;;;;;5.13;2.50;;;;;3.90;99886.00;;;;10393606;28;20197;-75
2022/11/21 07:51:20;;;;;;;6.97;2.63;;;;;4.00;99879.00;;;;10440280;28;20660;-76
2022/11/21 07:56:25;;;;;;;6.70;2.23;;;;;4.20;99861.00;;;;10399686;28;20202;-75
2022/11/21 08:01:27;;;;;;;11.83;2.23;;;;;4.30;99856.00;;;;10444877;28;20197;-75
2022/11/21 08:06:29;;;;;;;7.57;2.57;;;;;4.50;99852.00;;;;10425851;28;20695;-75
2022/11/21 08:11:31;;;;;;;9.17;2.63;;;;;4.60;99838.00;;;;10434501;28;20232;-75
2022/11/21 08:16:33;;;;;;;8.23;2.80;;;;;4.70;99844.00;;;;10439429;28;20189;-75
2022/11/21 08:21:35;;;;;;;9.37;3.47;;;;;4.80;99833.00;;;;10421939;28;20190;-76
2022/11/21 08:26:37;;;;;;;10.57;2.83;;;;;4.80;99818.00;;;;10447397;28;20215;-76
2022/11/21 08:31:39;;;;;;;4.80;2.87;;;;;4.90;99819.00;;;;10475135;28;20197;-76
2022/11/21 08:36:41;;;;;;;8.47;3.30;;;;;5.00;99812.00;;;;10417686;28;20189;-76
2022/11/21 08:47:03;;;;;;;11.17;4.10;;;;;5.40;99782.00;;;;10466015;28;20203;-76
2022/11/21 08:52:05;;;;;;;10.73;4.33;;;;;5.60;99775.00;;;;10482840;28;20193;-76
2022/11/21 08:57:07;;;;;;;10.50;3.50;;;;;5.80;99774.00;;;;10465990;28;20198;-76
2022/11/21 09:02:10;;;;;;;8.70;3.07;;;;;6.20;99772.00;;;;10465412;28;20208;-76
2022/11/21 09:07:12;;;;;;;10.90;3.67;;;;;6.60;99758.00;;;;10431590;28;20304;-76
2022/11/21 09:12:14;;;;;;;8.03;3.13;;;;;7.00;99761.00;;;;10429414;28;20225;-76
2022/11/21 09:22:36;;;;;;;6.80;2.60;;;;;7.10;99751.00;;;;10464489;28;20202;-76
2022/11/21 09:27:38;;;;;;;13.03;3.27;;;;;7.10;99743.00;;;;10439433;28;20202;-76
2022/11/21 09:32:40;;;;;;;6.33;3.10;;;;;7.30;99743.00;;;;10461528;28;20198;-76
2022/11/21 09:37:42;;;;;;;14.07;3.07;;;;;7.40;99749.00;;;;10463779;28;20196;-76
2022/11/21 09:43:05;;;;;;;5.60;2.40;;;;;7.50;99740.00;;;;10446738;28;20687;-76
2022/11/21 09:48:13;;;;;;;5.90;2.50;;;;;7.80;99730.00;;;;10463491;28;20545;-76
2022/11/21 09:53:19;;;;;;;9.60;3.50;;;;;8.00;99720.00;;;;10447431;28;20564;-76
2022/11/21 09:58:40;;;;;;;7.77;2.90;;;;;8.00;99709.00;;;;10446722;28;20205;-76
2022/11/21 10:03:51;;;;;;;8.30;2.97;;;;;7.90;99707.00;;;;10462891;28;20683;-76
2022/11/21 10:09:26;;;;;;;9.77;4.10;;;;;8.40;99703.00;;;;10446536;28;20580;-76
2022/11/21 10:14:57;;;;;;;12.13;5.00;;;;;8.80;99700.00;;;;10476462;28;20193;-76
2022/11/21 10:20:21;;;;;;;9.97;4.40;;;;;8.80;99685.00;;;;10446567;28;20209;-76
2022/11/21 10:25:27;;;;;;;8.37;4.87;;;;;8.90;99667.00;;;;10445142;28;20691;-76
2022/11/21 10:30:29;;;;;;;13.10;3.73;;;;;8.90;99672.00;;;;10462095;28;20239;-76
2022/11/21 10:35:43;;;;;;;9.23;4.30;;;;;8.80;99656.00;;;;10425744;28;20194;-76
2022/11/21 10:40:48;;;;;;;9.73;4.60;;;;;8.50;99647.00;;;;10404355;28;20195;-76
2022/11/21 10:45:50;;;;;;;11.83;5.90;;;;;8.20;99647.00;;;;10411525;28;20220;-76
2022/11/21 10:51:05;;;;;;;9.97;6.17;;;;;8.00;99640.00;;;;10461341;28;20204;-76
2022/11/21 10:56:11;;;;;;;10.20;5.67;;;;;7.90;99626.00;;;;10444520;28;20194;-76
2022/11/21 11:01:23;;;;;;;9.70;5.10;;;;;8.10;99605.00;;;;10444209;28;20193;-76
2022/11/21 11:06:28;;;;;;;9.07;6.00;;;;;8.20;99592.00;;;;10419069;28;20226;-76
2022/11/21 11:11:31;;;;;;;6.33;4.60;;;;;8.20;99567.00;;;;10457942;28;20189;-76
2022/11/21 11:16:35;;;;;;;10.77;4.97;;;;;8.20;99553.00;;;;10460186;28;20217;-76
2022/11/21 11:21:44;;;;;;;7.33;4.27;;;;;8.40;99533.00;;;;10475743;28;20198;-76
2022/11/21 11:26:46;;;;;;;9.77;4.80;;;;;8.60;99521.00;;;;10459631;28;20239;-76
2022/11/21 11:31:55;;;;;;;5.70;4.30;;;;;8.80;99519.00;;;;10443458;28;20284;-76
2022/11/21 11:37:09;;;;;;;11.03;4.90;;;;;8.90;99475.00;;;;10423473;28;20240;-76
2022/11/21 11:47:41;;;;;;;8.87;4.53;;;;;8.90;99447.00;;;;10434562;28;20652;-76
2022/11/21 11:53:22;;;;;;;7.87;4.40;;;;;9.00;99418.00;;;;10417865;28;20186;-76
2022/11/21 11:58:46;;;;;;;7.67;4.73;;;;;9.00;99420.00;;;;10433762;28;20198;-76
2022/11/21 12:04:00;;;;;;;6.37;4.10;;;;;9.10;99419.00;;;;10417476;28;20293;-76
2022/11/21 12:09:36;;;;;;;8.07;4.13;;;;;9.10;99403.00;;;;10416801;28;20218;-76
2022/11/21 12:21:14;;;;;;;8.50;4.07;;;;;9.00;99406.00;;;;10490916;28;20197;-76
2022/11/21 12:26:19;;;;;;;7.07;3.40;;;;;9.10;99389.00;;;;10440920;28;20312;-76
2022/11/21 12:31:39;;;;;;;10.37;2.97;;;;;9.00;99371.00;;;;10441836;28;20243;-76
2022/11/21 12:37:31;;;;;;;7.53;2.80;;;;;8.90;99359.00;;;;10447251;28;20369;-76
2022/11/21 12:42:48;;;;;;;7.83;3.10;;;;;8.80;99347.00;;;;10363113;28;20225;-76
2022/11/21 12:59:13;;;;;;;10.43;3.50;;;;;9.00;99280.00;;;;10492010;28;20214;-76
2022/11/21 13:04:20;;;;;;;10.13;3.20;;;;;9.20;99273.00;;;;10447611;28;20210;-76
2022/11/21 13:09:25;;;;;;;14.40;3.93;;;;;9.40;99257.00;;;;10442298;28;20287;-76
2022/11/21 13:14:45;;;;;;;7.10;3.60;;;;;9.50;99249.00;;;;10457228;28;20185;-76
2022/11/21 13:19:56;;;;;;;8.07;3.23;;;;;9.50;99229.00;;;;10425736;28;20189;-76
2022/11/21 13:24:58;;;;;;;5.60;3.30;;;;;9.50;99227.00;;;;10448145;28;20214;-75
2022/11/21 13:30:06;;;;;;;8.53;3.83;;;;;9.40;99215.00;;;;10480909;28;20786;-76
2022/11/21 13:35:20;;;;;;;4.30;2.93;;;;;9.40;99202.00;;;;10431255;28;20773;-75
2022/11/21 13:40:25;;;;;;;11.80;3.13;;;;;9.30;99214.00;;;;10457316;28;20225;-76
2022/11/21 13:45:39;;;;;;;5.77;3.10;;;;;9.20;99205.00;;;;10422468;28;20194;-75
2022/11/21 13:50:58;;;;;;;5.23;2.60;;;;;9.00;99197.00;;;;10440529;28;20189;-76
2022/11/21 13:56:28;;;;;;;8.97;2.70;;;;;8.90;99172.00;;;;10446875;28;20184;-75
2022/11/21 14:01:46;;;;;;;8.27;2.27;;;;;8.80;99151.00;;;;10466887;28;20190;-76
2022/11/21 14:06:49;;;;;;;9.03;2.63;;;;;8.80;99137.00;;;;10454899;28;20221;-75
2022/11/21 14:11:51;;;;;;;6.03;2.33;;;;;8.70;99122.00;;;;10445649;28;20193;-75
2022/11/21 14:17:19;;;;;;;6.23;2.17;;;;;8.80;99090.00;;;;10446152;28;20206;-75
2022/11/21 14:22:39;;;;;;;4.57;2.30;;;;;8.80;99071.00;;;;10425256;28;20263;-75
2022/11/21 14:27:50;;;;;;;5.13;1.43;;;;;8.70;99053.00;;;;10404857;28;20233;-75
2022/11/21 14:32:52;;;;;;;7.67;2.60;;;;;8.70;99029.00;;;;10411002;28;20189;-76
2022/11/21 14:37:56;;;;;;;6.33;2.50;;;;;8.60;99020.00;;;;10439122;28;20186;-75
2022/11/21 14:43:00;;;;;;;6.50;3.17;;;;;8.50;99005.00;;;;10412593;28;20210;-76
2022/11/21 14:48:11;;;;;;;6.00;2.27;;;;;8.50;99007.00;;;;10442479;28;20190;-76
2022/11/21 14:53:13;;;;;;;5.30;2.10;;;;;8.40;99003.00;;;;10408381;28;20198;-76
2022/11/21 14:58:15;;;;;;;8.57;2.53;;;;;8.40;99008.00;;;;10443255;28;20196;-76
2022/11/21 15:03:20;;;;;;;10.67;3.03;;;;;8.40;98997.00;;;;10432842;28;20260;-76
2022/11/21 15:08:23;;;;;;;7.40;2.80;;;;;8.30;98993.00;;;;10459894;28;20213;-76
2022/11/21 15:13:51;;;;;;;7.63;2.83;;;;;8.20;98993.00;;;;10426680;28;20198;-75
2022/11/21 15:19:19;;;;;;;4.83;2.77;;;;;8.10;98984.00;;;;10414284;28;20222;-76
2022/11/21 15:24:41;;;;;;;5.23;1.93;;;;;8.10;98985.00;;;;10448826;28;20347;-76
2022/11/21 15:29:42;;;;;;;5.73;2.53;;;;;8.00;98977.00;;;;10419302;28;20212;-76
2022/11/21 15:34:44;;;;;;;4.70;2.10;;;;;8.00;98959.00;;;;10427452;28;20487;-76
2022/11/21 15:39:49;;;;;;;4.07;2.27;;;;;8.00;98959.00;;;;10454049;28;20216;-76
2022/11/21 15:45:18;;;;;;;5.63;1.90;;;;;7.90;98930.00;;;;10428122;28;20201;-76
2022/11/21 15:50:40;;;;;;;4.10;1.90;;;;;7.90;98931.00;;;;10449566;28;20284;-76
2022/11/21 15:55:41;;;;;;;5.93;2.00;;;;;7.90;98916.00;;;;10425818;28;20194;-77
2022/11/21 16:00:43;;;;;;;8.67;2.17;;;;;7.90;98899.00;;;;10426866;28;20510;-74
2022/11/21 16:05:45;;;;;;;4.20;2.10;;;;;7.90;98900.00;;;;10427168;28;20221;-76
2022/11/21 16:10:49;;;;;;;7.53;2.10;;;;;7.80;98883.00;;;;10436452;28;20197;-76
2022/11/21 16:15:50;;;;;;;4.30;1.90;;;;;7.80;98876.00;;;;10423364;28;20191;-76
2022/11/21 16:20:52;;;;;;;9.17;2.10;;;;;7.80;98859.00;;;;10426649;28;20181;-76
2022/11/21 16:25:54;;;;;;;3.07;1.77;;;;;7.80;98864.00;;;;10409971;28;20873;-76
2022/11/21 16:30:57;;;;;;;5.27;2.37;;;;;7.80;98861.00;;;;10430577;28;20220;-76
2022/11/21 16:35:59;;;;;;;5.43;2.23;;;;;7.70;98843.00;;;;10402012;28;20850;-75
2022/11/21 16:41:04;;;;;;;7.27;2.03;;;;;7.70;98834.00;;;;10454917;28;20205;-76
2022/11/21 16:46:08;;;;;;;6.33;2.47;;;;;7.60;98823.00;;;;10474969;28;20213;-76
2022/11/21 16:51:14;;;;;;;9.63;2.53;;;;;7.60;98816.00;;;;10458527;28;20197;-76
2022/11/21 16:56:16;;;;;;;8.87;4.43;;;;;7.50;98797.00;;;;10448370;28;20178;-76
2022/11/21 17:01:23;;;;;;;10.27;3.53;;;;;7.40;98795.00;;;;10466064;28;20201;-77
2022/11/21 17:06:29;;;;;;;9.00;4.10;;;;;7.40;98780.00;;;;10445431;28;20651;-78
2022/11/21 17:11:31;;;;;;;7.57;3.57;;;;;7.30;98765.00;;;;10466484;28;20189;-78
2022/11/21 17:16:34;;;;;;;7.27;2.67;;;;;7.20;98749.00;;;;10448976;28;20719;-78
2022/11/21 17:21:36;;;;;;;8.50;2.37;;;;;7.20;98751.00;;;;10449184;28;20181;-78
2022/11/21 17:26:38;;;;;;;5.00;2.27;;;;;7.20;98749.00;;;;10465966;28;20236;-78
2022/11/21 17:31:41;;;;;;;8.87;2.10;;;;;7.20;98730.00;;;;10448779;28;20679;-78
2022/11/21 17:36:42;;;;;;;7.10;2.33;;;;;7.10;98730.00;;;;10437688;28;20594;-78
2022/11/21 17:41:44;;;;;;;8.07;2.30;;;;;7.10;98708.00;;;;10424966;28;20205;-78
2022/11/21 17:46:47;;;;;;;8.93;1.87;;;;;7.10;98701.00;;;;10429768;28;20251;-78
2022/11/21 17:51:50;;;;;;;11.37;2.40;;;;;7.00;98690.00;;;;10433012;28;20759;-78
2022/11/21 17:56:58;;;;;;;5.20;2.47;;;;;7.00;98680.00;;;;10432811;28;20268;-78
2022/11/21 18:02:00;;;;;;;9.07;2.63;;;;;7.00;98675.00;;;;10447890;28;20224;-77
2022/11/21 18:07:03;;;;;;;10.90;2.57;;;;;7.00;98661.00;;;;10414281;28;20531;-78
2022/11/21 18:12:05;;;;;;;9.37;2.67;;;;;7.00;98653.00;;;;10437263;28;20190;-78
2022/11/21 18:17:07;;;;;;;8.80;2.87;;;;;7.00;98652.00;;;;10463448;28;20235;-78
2022/11/21 18:22:09;;;;;;;8.60;2.07;;;;;7.00;98642.00;;;;10447195;28;20571;-77
2022/11/21 18:27:11;;;;;;;5.17;1.90;;;;;7.00;98640.00;;;;10446479;28;20904;-77
2022/11/21 18:32:12;;;;;;;7.53;2.00;;;;;7.00;98636.00;;;;10462747;28;20243;-77
2022/11/21 18:37:14;;;;;;;9.20;2.07;;;;;7.00;98638.00;;;;10446443;28;20294;-77
2022/11/21 18:42:16;;;;;;;6.67;1.70;;;;;7.00;98618.00;;;;10446458;28;20247;-78
2022/11/21 18:47:18;;;;;;;7.60;2.17;;;;;7.00;98625.00;;;;10479457;28;20198;-78
2022/11/21 18:52:21;;;;;;;8.03;2.00;;;;;7.00;98620.00;;;;10430169;28;20260;-78
2022/11/21 18:57:23;;;;;;;5.10;1.87;;;;;7.00;98612.00;;;;10420695;28;20202;-78
2022/11/21 19:02:25;;;;;;;6.93;3.10;;;;;7.00;98605.00;;;;10421638;28;20205;-78
2022/11/21 19:07:27;;;;;;;7.93;2.03;;;;;7.00;98605.00;;;;10432236;28;20726;-78
2022/11/21 19:12:29;;;;;;;5.57;1.70;;;;;7.00;98585.00;;;;10459135;28;20197;-78
2022/11/21 19:17:37;;;;;;;6.20;2.33;;;;;7.00;98578.00;;;;10428763;28;20194;-77
2022/11/21 19:22:38;;;;;;;8.47;1.97;;;;;7.00;98559.00;;;;10477466;28;20194;-77
2022/11/21 19:27:40;;;;;;;1.23;1.03;;;;;7.00;98547.00;;;;10460283;28;20249;-77
2022/11/21 19:32:42;;;;;;;5.73;1.90;;;;;6.90;98531.00;;;;10444299;28;20264;-77
2022/11/21 19:37:44;;;;;;;3.43;1.33;;;;;6.90;98546.00;;;;10422079;28;20202;-77
2022/11/21 19:42:46;;;;;;;5.90;1.83;;;;;6.90;98546.00;;;;10435402;28;20572;-77
2022/11/21 19:47:55;;;;;;;4.37;1.37;;;;;7.00;98553.00;;;;10451698;28;20232;-77
2022/11/21 19:52:57;;;;;;;5.60;1.77;;;;;7.00;98539.00;;;;10451555;28;20274;-77
2022/11/21 19:57:59;;;;;;;6.73;1.30;;;;;7.00;98525.00;;;;10435017;28;20182;-77
2022/11/21 20:03:01;;;;;;;11.43;1.57;;;;;7.00;98529.00;;;;10442726;28;20259;-77
2022/11/21 20:08:04;;;;;;;1.40;1.20;;;;;7.00;98525.00;;;;10442288;28;20225;-77
2022/11/21 20:13:17;;;;;;;4.90;1.87;;;;;7.00;98534.00;;;;10476035;28;20194;-77
2022/11/21 20:18:19;;;;;;;3.07;1.53;;;;;7.00;98513.00;;;;10442382;28;20189;-77
2022/11/21 20:23:21;;;;;;;2.43;1.30;;;;;7.00;98513.00;;;;10426138;28;20209;-77
2022/11/21 20:28:23;;;;;;;3.93;1.17;;;;;7.00;98508.00;;;;10441851;28;20292;-77
2022/11/21 20:33:25;;;;;;;3.23;0.73;;;;;7.00;98503.00;;;;10439676;28;20194;-77
2022/11/21 20:38:27;;;;;;;2.93;1.40;;;;;7.00;98511.00;;;;10450669;28;20208;-76
2022/11/21 20:43:30;;;;;;;5.13;0.77;;;;;7.00;98497.00;;;;10458716;28;20735;-77
2022/11/21 20:48:52;;;;;;;2.60;1.63;;;;;7.00;98511.00;;;;10428070;28;20201;-77
2022/11/21 20:53:54;;;;;;;2.37;1.77;;;;;7.00;98501.00;;;;10441954;28;20185;-77
2022/11/21 20:59:04;;;;;;;2.43;1.00;;;;;6.90;98516.00;;;;10474546;28;20194;-77
2022/11/21 21:04:08;;;;;;;3.03;0.90;;;;;6.90;98525.00;;;;10457822;28;20201;-77
2022/11/21 21:09:09;;;;;;;0.50;0.50;;;;;6.90;98523.00;;;;10440562;28;20214;-77
2022/11/21 21:14:11;;;;;;;0.43;0.43;;;;;6.90;98546.00;;;;10457646;28;20832;-77
2022/11/21 21:19:13;;;;;;;1.80;1.03;;;;;6.90;98555.00;;;;10451298;28;20193;-77
2022/11/21 21:24:15;;;;;;;1.67;0.93;;;;;6.90;98564.00;;;;10424741;28;20217;-77
2022/11/21 21:29:19;;;;;;;1.00;0.77;;;;;6.90;98552.00;;;;10441072;28;20265;-77
2022/11/21 21:34:22;;;;;;;1.77;1.17;;;;;6.90;98556.00;;;;10447493;28;20197;-77
2022/11/21 21:39:24;;;;;;;1.37;1.27;;;;;6.90;98536.00;;;;10416486;28;20198;-77
2022/11/21 21:44:26;;;;;;;2.20;1.00;;;;;6.90;98553.00;;;;10407027;28;20202;-77
2022/11/21 21:49:33;;;;;;;1.33;0.77;;;;;6.90;98556.00;;;;10444546;28;20284;-77
2022/11/21 21:54:35;;;;;;;4.20;1.20;;;;;7.00;98560.00;;;;10406839;28;20195;-77
2022/11/21 21:59:37;;;;;;;0.60;0.60;;;;;7.00;98559.00;;;;10460857;28;20648;-77
2022/11/21 22:04:39;;;;;;;0.60;0.60;;;;;7.00;98553.00;;;;10433769;28;20202;-77
2022/11/21 22:09:41;;;;;;;1.93;1.20;;;;;6.90;98540.00;;;;10422253;28;20309;-77
2022/11/21 22:14:43;;;;;;;1.00;0.73;;;;;6.80;98541.00;;;;10429896;28;20197;-77
2022/11/21 22:19:45;;;;;;;4.67;1.20;;;;;6.60;98549.00;;;;10456137;28;20584;-77
2022/11/21 22:24:46;;;;;;;10.27;1.47;;;;;6.50;98550.00;;;;10421812;28;20635;-76
2022/11/21 22:29:48;;;;;;;1.40;1.30;;;;;6.40;98545.00;;;;10405253;28;20191;-77
2022/11/21 22:34:50;;;;;;;1.00;0.90;;;;;6.30;98552.00;;;;10405356;28;20190;-76
2022/11/21 22:39:52;;;;;;;2.50;1.40;;;;;6.20;98551.00;;;;10388701;28;20292;-77
2022/11/21 22:44:54;;;;;;;0.70;0.70;;;;;6.10;98568.00;;;;10438480;28;20218;-77
2022/11/21 22:49:56;;;;;;;3.70;1.30;;;;;6.10;98572.00;;;;10462044;28;20235;-76
2022/11/21 22:54:58;;;;;;;3.80;1.67;;;;;6.10;98572.00;;;;10478250;28;20241;-76
2022/11/21 23:00:01;;;;;;;3.00;1.30;;;;;6.10;98574.00;;;;10445103;28;20663;-77
2022/11/21 23:05:03;;;;;;;3.50;1.30;;;;;6.00;98574.00;;;;10437197;28;20220;-77
2022/11/21 23:10:05;;;;;;;3.70;1.20;;;;;6.00;98564.00;;;;10421630;28;20190;-77
2022/11/21 23:15:08;;;;;;;1.07;0.97;;;;;5.90;98567.00;;;;10421734;28;20178;-76
2022/11/21 23:20:10;;;;;;;5.80;1.30;;;;;6.10;98567.00;;;;10474004;28;20243;-77
2022/11/21 23:25:12;;;;;;;3.53;1.00;;;;;6.10;98567.00;;;;10443627;28;20210;-77
2022/11/21 23:30:14;;;;;;;7.50;1.60;;;;;6.20;98574.00;;;;10444958;28;20194;-76
2022/11/21 23:35:16;;;;;;;7.10;1.93;;;;;6.20;98597.00;;;;10471244;28;20194;-76
2022/11/21 23:40:18;;;;;;;6.40;0.90;;;;;6.10;98601.00;;;;10461587;28;20201;-76
2022/11/21 23:45:20;;;;;;;0.93;0.67;;;;;6.10;98592.00;;;;10444972;28;20232;-76
2022/11/21 23:50:22;;;;;;;11.87;1.20;;;;;6.10;98588.00;;;;10461289;28;20665;-76
2022/11/21 23:55:23;;;;;;;6.17;1.10;;;;;6.10;98602.00;;;;10461078;28;20308;-76
